Valley of Fire, Nevada
Current Conditions -  °F | °C
As of 11:58 AM on Tuesday 25 Nov 2014 (Local Time) from KLSV Reporting Station
Clear Clear  
Wind Chill: 59°   Ceiling: Unl
Heat Index: 59°   Visibility: 10mi
Dew Point: 13°   Wind: 0mph
Humidity: 16%   Direction: NA
Pressure: 30.41"   Gusts: NA
Location:  36.5809°N, 114.605°W
Report Text: KLSV 251958Z AUTO 00000KT 10SM CLR 15/M11 A3041 RMK AO2 SLP295 T01481107
Loading
Personal Weather Stations






























Interactive Weather Map New forecast layout! Learn more

10-Day Weather Forecast

Advertisements
Track Severe Weather on mobile